Time;durP1;ratioP1;P1;durP2;ratioP2;P2;SDS_P1;SDS_P2;PMS_P1;PMS_P2;Temp;Humidity;BMP_temperature;BMP_pressure;BME280_temperature;BME280_humidity;BME280_pressure;Samples;Min_cycle;Max_cycle;Signal;HPM_P1;HPM_P2
2023/01/19 00:01:36;;;;;;;13.88;10.93;;;2.80;99.90;;;;;;4999656;28;87681;-32
2023/01/19 00:04:02;;;;;;;15.10;13.43;;;2.70;99.90;;;;;;4999973;28;90582;-32
2023/01/19 00:06:28;;;;;;;17.05;15.30;;;2.80;99.90;;;;;;4999977;28;89583;-31
2023/01/19 00:08:53;;;;;;;16.23;14.13;;;2.70;99.90;;;;;;5000450;28;88832;-32
2023/01/19 00:11:19;;;;;;;15.95;14.48;;;2.80;99.90;;;;;;4999549;28;89794;-33
2023/01/19 00:13:48;;;;;;;16.67;14.90;;;2.70;99.90;;;;;;4999465;28;89765;-32
2023/01/19 00:16:18;;;;;;;17.67;15.50;;;2.70;99.90;;;;;;4999697;28;88898;-31
2023/01/19 00:18:44;;;;;;;14.80;13.30;;;2.70;99.90;;;;;;5000254;28;87568;-34
2023/01/19 00:21:11;;;;;;;16.52;13.07;;;2.60;99.90;;;;;;5000206;28;88893;-32
2023/01/19 00:23:36;;;;;;;14.85;12.77;;;2.60;99.90;;;;;;4999873;28;89859;-33
2023/01/19 00:26:02;;;;;;;15.63;13.18;;;2.70;99.90;;;;;;5000299;28;88412;-35
2023/01/19 00:28:28;;;;;;;11.25;9.98;;;2.70;99.90;;;;;;5000031;28;89047;-32
2023/01/19 00:30:53;;;;;;;15.15;13.02;;;2.70;99.90;;;;;;4999190;28;90430;-33
2023/01/19 00:33:19;;;;;;;13.82;12.50;;;2.70;99.90;;;;;;4999224;28;89819;-31
2023/01/19 00:35:50;;;;;;;13.80;11.48;;;2.70;99.90;;;;;;4998822;28;89874;-31
2023/01/19 00:38:16;;;;;;;17.77;11.70;;;2.70;99.90;;;;;;4999762;28;88210;-32
2023/01/19 00:40:42;;;;;;;11.85;10.48;;;2.80;99.90;;;;;;4999488;28;88714;-31
2023/01/19 00:43:07;;;;;;;12.95;11.27;;;2.80;99.90;;;;;;4999737;28;91515;-31
2023/01/19 00:45:33;;;;;;;15.82;12.45;;;2.70;99.90;;;;;;4997634;28;89365;-32
2023/01/19 00:47:58;;;;;;;11.60;10.50;;;2.70;99.90;;;;;;4999740;28;88418;-34
2023/01/19 00:50:26;;;;;;;11.27;10.27;;;2.70;99.90;;;;;;4999366;28;87802;-33
2023/01/19 00:52:53;;;;;;;11.85;10.68;;;2.70;99.90;;;;;;4999387;28;90919;-32
2023/01/19 00:55:19;;;;;;;14.70;8.25;;;2.70;99.90;;;;;;4999800;28;89192;-32
2023/01/19 00:57:44;;;;;;;10.07;8.65;;;2.70;99.90;;;;;;4999690;28;88895;-31
2023/01/19 01:00:15;;;;;;;8.73;7.85;;;2.70;99.90;;;;;;5000162;28;89175;-34
2023/01/19 01:02:42;;;;;;;8.52;6.97;;;2.80;99.90;;;;;;4999626;28;89726;-32
2023/01/19 01:05:09;;;;;;;7.60;6.90;;;2.70;99.90;;;;;;5000919;28;89970;-31
2023/01/19 01:07:44;;;;;;;8.02;6.43;;;2.70;99.90;;;;;;4999950;28;89336;-32
2023/01/19 01:10:25;;;;;;;8.40;6.15;;;2.60;99.90;;;;;;5000106;28;89020;-32
2023/01/19 01:12:52;;;;;;;6.10;5.60;;;2.60;99.90;;;;;;4999307;28;90131;-32
2023/01/19 01:15:18;;;;;;;6.30;5.70;;;2.60;99.90;;;;;;4999909;28;90118;-32
2023/01/19 01:17:47;;;;;;;6.88;6.15;;;2.50;99.90;;;;;;5000436;28;90134;-31
2023/01/19 01:20:17;;;;;;;8.50;7.43;;;2.50;99.90;;;;;;5000373;28;87682;-31
2023/01/19 01:22:44;;;;;;;8.85;6.47;;;2.40;99.90;;;;;;4999729;28;90790;-32
2023/01/19 01:25:14;;;;;;;9.45;8.43;;;2.40;99.90;;;;;;5000091;28;88968;-33
2023/01/19 01:27:41;;;;;;;9.38;7.75;;;2.40;99.90;;;;;;5000005;28;87863;-32
2023/01/19 01:30:08;;;;;;;9.55;8.45;;;2.30;99.90;;;;;;4999707;28;89016;-34
2023/01/19 01:32:33;;;;;;;9.13;8.23;;;2.40;99.90;;;;;;5000143;28;90027;-33
2023/01/19 01:34:59;;;;;;;11.25;10.25;;;2.30;99.90;;;;;;4999353;28;89885;-33
2023/01/19 01:37:25;;;;;;;12.93;10.70;;;2.30;99.90;;;;;;4998749;28;89687;-34
2023/01/19 01:39:50;;;;;;;10.65;9.55;;;2.20;99.90;;;;;;5000719;28;88569;-32
2023/01/19 01:42:18;;;;;;;11.57;10.05;;;2.30;99.90;;;;;;5002690;28;90163;-34
2023/01/19 01:44:49;;;;;;;11.75;10.65;;;2.20;99.90;;;;;;5001738;28;89204;-35
2023/01/19 01:47:49;;;;;;;13.77;12.35;;;2.20;99.90;;;;;;5002460;28;88589;-34
2023/01/19 01:50:20;;;;;;;13.35;11.95;;;2.20;99.90;;;;;;4989535;28;90400;-31
2023/01/19 01:52:50;;;;;;;12.77;11.48;;;2.30;99.90;;;;;;5001643;28;90396;-32
2023/01/19 01:55:19;;;;;;;13.60;12.30;;;2.20;99.90;;;;;;5002265;28;89111;-32
2023/01/19 01:57:50;;;;;;;12.80;11.50;;;2.20;99.90;;;;;;5001667;28;89658;-33
2023/01/19 02:00:16;;;;;;;15.43;13.63;;;2.20;99.90;;;;;;5002685;28;88338;-31
2023/01/19 02:02:53;;;;;;;14.57;13.07;;;2.20;99.90;;;;;;5000037;28;90116;-32
2023/01/19 02:05:33;;;;;;;14.70;13.40;;;2.20;99.90;;;;;;5001782;28;89774;-32
2023/01/19 02:13:43;;;;;;;15.05;13.45;;;2.20;99.90;;;;;;4989650;28;90300;-34
2023/01/19 02:16:11;;;;;;;13.50;12.20;;;2.30;99.90;;;;;;5002009;28;90171;-31
2023/01/19 02:18:37;;;;;;;16.10;13.00;;;2.30;99.90;;;;;;5001672;28;90674;-32
2023/01/19 02:21:26;;;;;;;15.68;13.13;;;2.30;99.90;;;;;;5001163;28;88684;-33
2023/01/19 02:23:54;;;;;;;17.27;14.68;;;2.30;99.90;;;;;;5001584;28;90206;-32
2023/01/19 02:26:26;;;;;;;15.80;12.60;;;2.30;99.90;;;;;;4988427;28;88568;-32
2023/01/19 02:29:14;;;;;;;18.02;16.27;;;2.30;99.90;;;;;;5001873;28;88579;-34
2023/01/19 02:31:40;;;;;;;16.70;14.95;;;2.30;99.90;;;;;;5001427;28;89039;-31
2023/01/19 02:34:09;;;;;;;18.38;16.67;;;2.20;99.90;;;;;;5001401;28;89951;-31
2023/01/19 02:36:41;;;;;;;15.77;14.13;;;2.30;99.90;;;;;;5001165;28;89580;-33
2023/01/19 02:39:09;;;;;;;18.90;16.60;;;2.30;99.90;;;;;;5001933;28;87634;-32
2023/01/19 02:41:41;;;;;;;18.45;16.65;;;2.30;99.90;;;;;;5001492;28;89148;-32
2023/01/19 02:44:08;;;;;;;17.08;15.10;;;2.30;99.90;;;;;;5000532;28;90398;-33
2023/01/19 02:46:35;;;;;;;17.30;15.27;;;2.30;99.90;;;;;;5001691;28;90178;-30
2023/01/19 02:49:00;;;;;;;20.00;18.10;;;2.40;99.90;;;;;;5001613;28;89232;-32
2023/01/19 02:51:27;;;;;;;19.52;17.17;;;2.30;99.90;;;;;;5001121;28;88884;-34
2023/01/19 02:54:12;;;;;;;19.48;17.05;;;2.30;99.90;;;;;;5001586;28;90458;-30
2023/01/19 02:57:00;;;;;;;20.23;16.35;;;2.30;99.90;;;;;;5000178;28;89207;-32
2023/01/19 02:59:52;;;;;;;19.50;17.42;;;2.40;99.90;;;;;;5000587;28;88628;-31
2023/01/19 03:02:23;;;;;;;17.70;15.40;;;2.30;99.90;;;;;;5001352;28;89075;-30
2023/01/19 03:05:07;;;;;;;18.58;16.38;;;2.30;99.90;;;;;;5001318;28;90611;-34
2023/01/19 03:08:09;;;;;;;19.77;17.40;;;2.40;99.90;;;;;;5000859;28;89307;-32
2023/01/19 03:10:53;;;;;;;17.95;16.10;;;2.40;99.90;;;;;;5001236;28;89429;-33
2023/01/19 03:13:38;;;;;;;19.83;15.32;;;2.40;99.90;;;;;;5000694;28;88148;-32
2023/01/19 03:16:26;;;;;;;18.30;16.50;;;2.40;99.90;;;;;;5000856;28;89813;-33
2023/01/19 03:18:57;;;;;;;19.55;16.02;;;2.40;99.90;;;;;;5000564;28;89140;-31
2023/01/19 03:21:26;;;;;;;18.98;14.57;;;2.40;99.90;;;;;;5000105;28;90250;-32
2023/01/19 03:23:52;;;;;;;;;;;2.40;99.90;;;;;;5001175;28;87891;-32
2023/01/19 03:26:23;;;;;;;19.98;16.05;;;2.40;99.90;;;;;;5003112;28;90227;-32
2023/01/19 03:28:51;;;;;;;23.88;18.85;;;2.40;99.90;;;;;;5000985;28;89609;-33
2023/01/19 03:31:21;;;;;;;20.63;14.93;;;2.40;99.90;;;;;;5001327;28;88548;-31
2023/01/19 03:33:52;;;;;;;22.70;20.05;;;2.50;99.90;;;;;;5000434;28;90121;-33
2023/01/19 03:36:23;;;;;;;23.13;20.83;;;2.50;99.90;;;;;;5000230;28;89978;-31
2023/01/19 03:38:49;;;;;;;26.75;20.58;;;2.50;99.90;;;;;;5000491;28;89175;-35
2023/01/19 03:41:18;;;;;;;23.42;20.48;;;2.50;99.90;;;;;;5001529;28;88480;-32
2023/01/19 03:43:45;;;;;;;;;;;2.50;99.90;;;;;;5000668;28;89773;-34
2023/01/19 03:46:11;;;;;;;20.38;16.13;;;2.40;99.90;;;;;;5002215;28;90267;-31
2023/01/19 03:48:37;;;;;;;22.65;19.75;;;2.40;99.90;;;;;;4999883;28;90597;-32
2023/01/19 03:51:06;;;;;;;22.52;18.50;;;2.40;99.90;;;;;;5000286;28;88211;-32
2023/01/19 03:53:32;;;;;;;20.13;17.98;;;2.40;99.90;;;;;;4999845;28;88781;-33
2023/01/19 03:55:58;;;;;;;22.40;18.13;;;2.40;99.90;;;;;;4999792;28;89851;-32
2023/01/19 03:58:23;;;;;;;21.00;18.83;;;2.40;99.90;;;;;;5000141;28;90762;-31
2023/01/19 04:00:49;;;;;;;26.23;20.60;;;2.40;99.90;;;;;;4999935;28;89190;-32
2023/01/19 04:03:16;;;;;;;19.70;17.13;;;2.40;99.90;;;;;;4999715;28;87823;-33
2023/01/19 04:05:42;;;;;;;17.45;15.68;;;2.40;99.90;;;;;;4999751;28;90248;-32
2023/01/19 04:08:08;;;;;;;17.55;15.60;;;2.50;99.90;;;;;;4999927;28;89029;-31
2023/01/19 04:10:33;;;;;;;20.67;17.52;;;2.40;99.90;;;;;;4999882;28;87742;-31
2023/01/19 04:13:00;;;;;;;18.30;16.45;;;2.40;99.90;;;;;;4999411;28;90111;-31
2023/01/19 04:15:27;;;;;;;17.75;16.02;;;2.40;99.90;;;;;;4999853;28;90189;-33
2023/01/19 04:17:53;;;;;;;17.45;15.80;;;2.40;99.90;;;;;;5000264;28;89653;-30
2023/01/19 04:20:20;;;;;;;20.15;15.35;;;2.30;99.90;;;;;;4999872;28;89770;-31
2023/01/19 04:22:46;;;;;;;16.83;14.77;;;2.30;99.90;;;;;;4999252;28;88642;-32
2023/01/19 04:25:12;;;;;;;14.70;13.02;;;2.30;99.90;;;;;;4999917;28;90695;-30
2023/01/19 04:27:37;;;;;;;16.73;14.70;;;2.30;99.90;;;;;;4998984;28;89614;-33
2023/01/19 04:30:04;;;;;;;15.50;13.93;;;2.30;99.90;;;;;;5000581;28;87565;-31
2023/01/19 04:32:31;;;;;;;14.95;13.55;;;2.20;99.90;;;;;;4999659;28;87916;-34
2023/01/19 04:34:57;;;;;;;15.85;14.35;;;2.20;99.90;;;;;;4999075;28;90266;-30
2023/01/19 04:37:23;;;;;;;13.63;12.10;;;2.20;99.90;;;;;;4999405;28;89672;-31
2023/01/19 04:39:48;;;;;;;14.73;13.25;;;2.20;99.90;;;;;;4999613;28;87631;-32
2023/01/19 04:42:14;;;;;;;14.35;12.95;;;2.20;99.90;;;;;;5000390;28;89790;-31
2023/01/19 04:44:39;;;;;;;14.57;12.38;;;2.20;99.90;;;;;;4998309;28;89779;-31
2023/01/19 04:47:05;;;;;;;13.73;11.43;;;2.20;99.90;;;;;;4999799;28;88873;-32
2023/01/19 04:49:30;;;;;;;13.95;12.55;;;2.20;99.90;;;;;;4999636;28;87541;-32
2023/01/19 04:51:56;;;;;;;12.63;11.38;;;2.20;99.90;;;;;;4998962;28;87427;-31
2023/01/19 04:54:22;;;;;;;12.55;11.25;;;2.10;99.90;;;;;;4999934;28;90438;-31
2023/01/19 04:56:48;;;;;;;12.98;11.20;;;2.10;99.90;;;;;;4998628;28;90485;-31
2023/01/19 04:59:13;;;;;;;12.48;11.35;;;2.20;99.90;;;;;;4999653;28;90117;-34
2023/01/19 05:01:39;;;;;;;11.70;9.45;;;2.10;99.90;;;;;;4999102;28;88940;-33
2023/01/19 05:04:06;;;;;;;12.02;9.55;;;2.10;99.90;;;;;;4999832;28;90340;-34
2023/01/19 05:06:33;;;;;;;12.93;11.68;;;2.10;99.90;;;;;;5000260;28;89488;-33
2023/01/19 05:08:58;;;;;;;10.73;9.70;;;2.10;99.90;;;;;;4999318;28;88458;-31
2023/01/19 05:11:24;;;;;;;13.25;11.07;;;2.10;99.90;;;;;;5000207;28;90197;-34
2023/01/19 05:13:50;;;;;;;11.75;10.55;;;2.10;99.90;;;;;;4998804;28;90280;-32
2023/01/19 05:16:15;;;;;;;10.20;8.82;;;2.10;99.90;;;;;;5002641;28;89990;-32
2023/01/19 05:18:41;;;;;;;14.57;11.30;;;2.10;99.90;;;;;;5003516;28;90226;-32
2023/01/19 05:21:06;;;;;;;12.38;10.35;;;2.10;99.90;;;;;;5002753;28;89002;-33
2023/01/19 05:23:33;;;;;;;11.93;10.15;;;2.10;99.90;;;;;;5002657;28;89250;-34
2023/01/19 05:26:00;;;;;;;11.75;10.05;;;2.10;99.90;;;;;;5002353;28;89479;-34
2023/01/19 05:28:27;;;;;;;10.87;8.97;;;2.10;99.90;;;;;;5002312;28;89603;-31
2023/01/19 05:30:53;;;;;;;11.88;9.00;;;2.10;99.90;;;;;;5002641;28;88747;-33
2023/01/19 05:33:20;;;;;;;11.20;10.05;;;2.10;99.90;;;;;;5003043;28;90033;-32
2023/01/19 05:35:50;;;;;;;11.55;10.40;;;2.10;99.90;;;;;;5001772;28;89920;-32
2023/01/19 05:38:15;;;;;;;12.68;9.48;;;2.20;99.90;;;;;;5002005;28;88763;-33
2023/01/19 05:40:41;;;;;;;10.60;9.50;;;2.20;99.90;;;;;;5003222;28;88449;-32
2023/01/19 05:43:07;;;;;;;11.88;8.68;;;2.20;99.90;;;;;;5003263;28;91367;-31
2023/01/19 05:45:33;;;;;;;10.45;9.45;;;2.20;99.90;;;;;;5003386;28;90129;-31
2023/01/19 05:47:58;;;;;;;10.15;9.02;;;2.20;99.90;;;;;;5003225;28;90967;-33
2023/01/19 05:50:24;;;;;;;10.32;8.82;;;2.40;99.90;;;;;;5003216;28;89696;-33
2023/01/19 05:52:53;;;;;;;9.63;8.70;;;2.30;99.90;;;;;;5001764;28;90091;-34
2023/01/19 05:55:20;;;;;;;8.52;7.68;;;2.30;99.90;;;;;;5001844;28;89601;-32
2023/01/19 05:57:45;;;;;;;9.02;7.82;;;2.30;99.90;;;;;;5002978;28;89304;-32
2023/01/19 06:00:12;;;;;;;9.05;7.78;;;2.30;99.90;;;;;;5002497;28;87612;-33
2023/01/19 06:02:38;;;;;;;9.95;8.65;;;2.30;99.90;;;;;;5002122;28;90335;-32
2023/01/19 06:05:03;;;;;;;10.15;9.15;;;2.30;99.90;;;;;;5001039;28;89299;-32
2023/01/19 06:07:30;;;;;;;9.85;7.78;;;2.30;99.90;;;;;;5003205;28;89080;-33
2023/01/19 06:09:56;;;;;;;7.00;6.13;;;2.30;99.90;;;;;;5003398;28;89919;-32
2023/01/19 06:12:22;;;;;;;6.10;4.82;;;2.30;99.90;;;;;;5002372;28;89854;-34
2023/01/19 06:14:48;;;;;;;7.20;6.43;;;2.30;99.90;;;;;;5002571;28;89209;-32
2023/01/19 06:17:13;;;;;;;5.60;4.60;;;2.30;99.90;;;;;;5002438;28;87598;-31
2023/01/19 06:19:39;;;;;;;9.27;4.90;;;2.30;99.90;;;;;;5002652;28;89811;-32
2023/01/19 06:22:05;;;;;;;7.70;4.95;;;2.40;99.90;;;;;;5002854;28;89234;-32
2023/01/19 06:24:31;;;;;;;7.78;5.43;;;2.40;99.90;;;;;;5001717;28;89174;-33
2023/01/19 06:26:57;;;;;;;11.90;4.13;;;2.40;99.90;;;;;;5000548;28;89036;-32
2023/01/19 06:29:23;;;;;;;4.60;3.85;;;2.40;99.90;;;;;;5002237;28;87893;-31
2023/01/19 06:31:48;;;;;;;10.95;4.53;;;2.30;99.90;;;;;;5002512;28;90081;-30
2023/01/19 06:34:14;;;;;;;6.03;3.10;;;2.30;99.90;;;;;;5001304;28;89088;-31
2023/01/19 06:36:39;;;;;;;4.68;2.85;;;2.30;99.90;;;;;;5001861;28;87657;-31
2023/01/19 06:39:05;;;;;;;7.47;3.10;;;2.30;99.90;;;;;;5002629;28;88332;-31
2023/01/19 06:41:32;;;;;;;6.43;2.75;;;2.30;99.90;;;;;;5002260;28;90829;-32
2023/01/19 06:43:58;;;;;;;2.45;2.05;;;2.30;99.90;;;;;;5001771;28;89194;-31
2023/01/19 06:46:24;;;;;;;4.03;2.28;;;2.40;99.90;;;;;;5003225;28;87858;-31
2023/01/19 06:48:50;;;;;;;5.72;2.33;;;2.40;99.90;;;;;;5001653;28;88671;-33
2023/01/19 06:51:16;;;;;;;5.60;2.58;;;2.30;99.90;;;;;;5001977;28;90167;-31
2023/01/19 06:53:42;;;;;;;9.73;2.55;;;2.40;99.90;;;;;;5001801;28;89406;-33
2023/01/19 06:56:08;;;;;;;6.45;2.08;;;2.40;99.90;;;;;;5002259;28;89968;-34
2023/01/19 06:58:34;;;;;;;1.88;1.45;;;2.40;99.90;;;;;;5002441;28;88303;-32
2023/01/19 07:01:02;;;;;;;5.20;2.20;;;2.40;99.90;;;;;;5001249;28;90180;-33
2023/01/19 07:03:27;;;;;;;4.47;2.25;;;2.40;99.90;;;;;;5000868;28;89320;-33
2023/01/19 07:05:53;;;;;;;4.28;1.70;;;2.40;99.90;;;;;;5002058;28;89500;-31
2023/01/19 07:08:19;;;;;;;6.25;2.45;;;2.50;99.90;;;;;;5001159;28;88013;-34
2023/01/19 07:10:45;;;;;;;1.27;1.17;;;2.50;99.90;;;;;;5001717;28;90476;-32
2023/01/19 07:13:10;;;;;;;10.10;2.42;;;2.50;99.90;;;;;;5001676;28;89653;-32
2023/01/19 07:15:36;;;;;;;3.40;1.88;;;2.50;99.90;;;;;;5001144;28;87573;-32
2023/01/19 07:18:06;;;;;;;8.88;1.83;;;2.60;99.90;;;;;;5002137;28;88836;-32
2023/01/19 07:20:32;;;;;;;2.85;1.80;;;2.60;99.90;;;;;;5002157;28;90915;-31
2023/01/19 07:22:58;;;;;;;6.22;1.83;;;2.60;99.90;;;;;;5000810;28;89869;-32
2023/01/19 07:25:24;;;;;;;4.72;1.92;;;2.60;99.90;;;;;;5001791;28;88547;-32
2023/01/19 07:27:49;;;;;;;3.42;2.03;;;2.60;99.90;;;;;;5001240;28;89562;-31
2023/01/19 07:30:15;;;;;;;3.42;1.30;;;2.60;99.90;;;;;;5001687;28;90654;-33
2023/01/19 07:32:41;;;;;;;7.45;2.15;;;2.60;99.90;;;;;;5001487;28;89173;-32
2023/01/19 07:35:09;;;;;;;5.15;1.25;;;2.60;99.90;;;;;;5000627;28;88980;-33
2023/01/19 07:37:34;;;;;;;6.07;1.77;;;2.60;99.90;;;;;;4997217;28;89229;-32
2023/01/19 07:40:00;;;;;;;3.47;1.70;;;2.60;99.90;;;;;;5010215;28;89253;-32
2023/01/19 07:42:26;;;;;;;5.93;1.98;;;2.60;99.90;;;;;;5019588;27;89594;-30
2023/01/19 07:44:51;;;;;;;3.17;2.08;;;2.60;99.90;;;;;;5021078;28;87567;-32
2023/01/19 07:47:17;;;;;;;3.90;1.50;;;2.60;99.90;;;;;;5003919;27;89193;-32
2023/01/19 07:49:43;;;;;;;7.10;2.20;;;2.60;99.90;;;;;;4999166;28;89830;-35
2023/01/19 07:52:08;;;;;;;7.60;1.85;;;2.60;99.90;;;;;;5000645;28;89390;-31
2023/01/19 07:54:34;;;;;;;4.95;2.25;;;2.60;99.90;;;;;;5006918;28;89015;-33
2023/01/19 07:57:00;;;;;;;4.93;2.10;;;2.50;99.90;;;;;;4998930;28;89096;-31
2023/01/19 07:59:27;;;;;;;7.22;1.70;;;2.60;99.90;;;;;;5013662;28;88626;-31
2023/01/19 08:01:52;;;;;;;3.65;1.45;;;2.70;99.90;;;;;;5020184;28;90214;-34
2023/01/19 08:04:19;;;;;;;10.45;2.42;;;2.70;99.90;;;;;;5019654;28;88615;-31
2023/01/19 08:06:45;;;;;;;7.82;2.40;;;2.90;99.90;;;;;;5018075;28;89559;-32
2023/01/19 08:09:11;;;;;;;5.72;2.03;;;2.80;99.90;;;;;;5019869;27;89999;-34
2023/01/19 08:11:36;;;;;;;9.90;2.40;;;2.90;99.90;;;;;;5018276;27;91343;-34
2023/01/19 08:14:02;;;;;;;5.70;2.63;;;2.90;99.90;;;;;;5020483;28;87642;-31
2023/01/19 08:16:28;;;;;;;9.55;2.10;;;2.90;99.90;;;;;;5008218;27;89927;-31
2023/01/19 08:18:54;;;;;;;3.40;1.98;;;3.00;99.90;;;;;;4999633;28;90203;-32
2023/01/19 08:21:20;;;;;;;11.77;2.42;;;3.00;99.90;;;;;;5000779;28;88044;-32
2023/01/19 08:23:53;;;;;;;11.00;2.60;;;3.00;99.90;;;;;;5000201;28;89125;-32
2023/01/19 08:26:28;;;;;;;4.35;1.88;;;3.00;99.90;;;;;;5001335;28;89946;-33
2023/01/19 08:28:55;;;;;;;10.45;2.03;;;3.00;99.90;;;;;;4999912;28;90123;-32
2023/01/19 08:31:20;;;;;;;6.47;2.15;;;3.10;99.90;;;;;;4999990;28;89575;-34
2023/01/19 08:33:46;;;;;;;11.35;2.50;;;3.10;99.90;;;;;;5000787;28;88889;-31
2023/01/19 08:36:12;;;;;;;15.25;2.88;;;3.00;99.90;;;;;;5000732;28;89242;-32
2023/01/19 08:38:40;;;;;;;7.88;2.95;;;3.10;99.90;;;;;;4997738;28;89893;-32
2023/01/19 08:41:05;;;;;;;5.30;2.15;;;3.10;99.90;;;;;;4998069;28;89388;-31
2023/01/19 08:43:31;;;;;;;11.73;2.47;;;3.00;99.90;;;;;;5006334;28;87577;-32
2023/01/19 08:45:56;;;;;;;9.38;3.45;;;3.00;99.90;;;;;;5008748;28;89711;-32
2023/01/19 08:48:22;;;;;;;13.35;2.22;;;3.00;99.90;;;;;;5006775;28;90366;-32
2023/01/19 08:50:50;;;;;;;13.57;2.47;;;3.00;99.90;;;;;;5012318;27;89157;-35
2023/01/19 08:53:19;;;;;;;9.18;2.45;;;2.90;99.90;;;;;;5003896;28;89059;-32
2023/01/19 08:55:45;;;;;;;11.73;2.13;;;2.90;99.90;;;;;;5002847;28;88020;-33
2023/01/19 08:58:11;;;;;;;12.98;2.97;;;2.90;99.90;;;;;;5002311;28;90434;-31
2023/01/19 09:00:38;;;;;;;9.23;2.55;;;2.90;99.90;;;;;;5004287;28;90170;-32
2023/01/19 09:03:10;;;;;;;13.82;3.20;;;2.90;99.90;;;;;;5003660;28;87640;-31
2023/01/19 09:05:37;;;;;;;13.23;3.40;;;2.80;99.90;;;;;;5003741;28;89393;-35
2023/01/19 09:08:07;;;;;;;8.90;2.53;;;2.80;99.90;;;;;;5004060;28;90225;-32
2023/01/19 09:10:36;;;;;;;6.75;2.13;;;2.90;99.90;;;;;;5004130;28;89200;-32
2023/01/19 09:13:08;;;;;;;11.52;2.70;;;2.90;99.90;;;;;;5003563;28;89298;-33
2023/01/19 09:15:36;;;;;;;14.27;3.20;;;3.10;99.90;;;;;;5004121;28;88078;-31
2023/01/19 09:18:03;;;;;;;9.50;2.78;;;3.30;99.90;;;;;;5003999;28;90325;-31
2023/01/19 09:20:30;;;;;;;15.57;4.25;;;3.50;99.90;;;;;;5003601;28;90584;-31
2023/01/19 09:22:57;;;;;;;19.92;4.40;;;3.80;99.90;;;;;;5003431;28;87606;-34
2023/01/19 09:25:23;;;;;;;14.77;3.75;;;4.00;99.90;;;;;;5003130;28;88180;-32
2023/01/19 09:27:49;;;;;;;10.82;3.58;;;4.10;99.90;;;;;;5002587;28;91807;-32
2023/01/19 09:30:15;;;;;;;14.38;3.58;;;4.20;99.90;;;;;;5003003;28;89560;-31
2023/01/19 09:32:41;;;;;;;10.60;3.58;;;4.30;99.90;;;;;;5003281;28;88826;-33
2023/01/19 09:35:08;;;;;;;9.15;2.63;;;4.50;99.90;;;;;;5003714;28;87568;-32
2023/01/19 09:37:33;;;;;;;20.10;3.92;;;4.70;99.90;;;;;;5002692;28;90094;-33
2023/01/19 09:39:59;;;;;;;11.43;4.07;;;4.70;99.90;;;;;;5002810;28;89477;-32
2023/01/19 09:42:43;;;;;;;13.65;4.07;;;4.60;99.90;;;;;;5002861;28;88778;-32
2023/01/19 09:45:21;;;;;;;10.38;3.53;;;4.50;99.90;;;;;;5049737;22;90183;-31
2023/01/19 09:47:49;;;;;;;17.42;4.72;;;4.40;99.90;;;;;;5022823;28;90342;-31
2023/01/19 09:50:25;;;;;;;18.95;3.90;;;4.30;99.90;;;;;;5022418;28;89763;-33
2023/01/19 09:53:00;;;;;;;14.98;4.15;;;4.40;99.90;;;;;;5022466;28;90032;-34
2023/01/19 09:55:26;;;;;;;10.57;3.28;;;4.30;99.90;;;;;;5023012;28;89614;-32
2023/01/19 09:57:53;;;;;;;17.15;3.83;;;4.40;99.90;;;;;;5022476;28;90287;-34
2023/01/19 10:00:19;;;;;;;14.45;4.13;;;4.30;99.90;;;;;;5022144;28;89822;-33
2023/01/19 10:02:51;;;;;;;10.32;4.15;;;4.20;99.90;;;;;;5022364;28;88500;-32
2023/01/19 10:05:29;;;;;;;13.55;3.53;;;4.20;99.90;;;;;;5023233;28;88609;-32
2023/01/19 10:08:21;;;;;;;17.98;3.65;;;4.20;99.90;;;;;;5022688;28;90651;-32
2023/01/19 10:10:52;;;;;;;16.80;3.88;;;4.10;99.90;;;;;;5022246;28;89160;-31
2023/01/19 10:13:29;;;;;;;14.20;3.83;;;4.10;99.90;;;;;;5022493;28;88124;-34
2023/01/19 10:15:57;;;;;;;12.40;3.95;;;4.20;99.90;;;;;;5015441;28;89058;-34
2023/01/19 10:18:31;;;;;;;6.20;3.03;;;4.20;99.90;;;;;;5015855;28;88320;-34
2023/01/19 10:21:13;;;;;;;11.98;3.15;;;4.30;99.90;;;;;;5022394;28;90978;-34
2023/01/19 10:23:51;;;;;;;14.45;3.58;;;4.40;99.90;;;;;;5022511;28;87650;-33
2023/01/19 10:26:41;;;;;;;10.95;3.38;;;4.50;99.90;;;;;;5023027;28;87616;-32
2023/01/19 10:29:24;;;;;;;9.90;3.17;;;4.50;99.90;;;;;;5022489;28;90405;-35
2023/01/19 10:31:53;;;;;;;9.90;3.60;;;4.60;99.90;;;;;;5021987;28;89153;-31
2023/01/19 10:34:18;;;;;;;10.65;3.17;;;4.70;99.90;;;;;;5022245;28;89368;-33
2023/01/19 10:36:47;;;;;;;13.00;3.05;;;4.80;99.90;;;;;;5022562;28;87691;-33
2023/01/19 10:39:17;;;;;;;14.77;3.00;;;4.80;99.90;;;;;;5022400;28;90550;-31
2023/01/19 10:41:50;;;;;;;11.48;2.58;;;4.90;99.90;;;;;;5022139;28;89494;-33
2023/01/19 10:44:28;;;;;;;7.93;2.83;;;5.00;99.90;;;;;;5021753;28;88302;-32
2023/01/19 10:46:59;;;;;;;12.98;3.72;;;5.10;99.90;;;;;;5022097;28;87619;-33
2023/01/19 10:49:38;;;;;;;11.70;3.22;;;5.20;99.90;;;;;;5021537;28;90334;-32
2023/01/19 10:52:06;;;;;;;13.65;3.05;;;5.20;99.90;;;;;;5021900;28;89720;-33
2023/01/19 10:54:35;;;;;;;8.15;2.85;;;5.30;99.90;;;;;;5021927;28;87587;-34
2023/01/19 10:57:08;;;;;;;8.38;2.90;;;5.40;99.90;;;;;;5022614;28;88288;-33
2023/01/19 10:59:37;;;;;;;14.00;3.13;;;5.40;99.90;;;;;;5021196;28;89826;-34
2023/01/19 11:02:13;;;;;;;15.95;3.28;;;5.50;99.90;;;;;;5021442;28;89954;-32
2023/01/19 11:04:40;;;;;;;14.35;3.03;;;5.50;99.90;;;;;;5022281;28;89494;-35
2023/01/19 11:07:16;;;;;;;15.80;3.20;;;5.50;99.90;;;;;;5022103;28;87706;-32
2023/01/19 11:09:42;;;;;;;13.88;2.78;;;5.70;99.90;;;;;;5021067;28;89390;-31
2023/01/19 11:12:22;;;;;;;10.77;2.78;;;5.70;99.90;;;;;;5020347;28;89948;-33
2023/01/19 11:14:49;;;;;;;6.07;2.78;;;5.70;99.90;;;;;;5021968;28;87611;-32
2023/01/19 11:17:24;;;;;;;12.82;2.85;;;5.80;99.90;;;;;;5008286;28;89124;-32
2023/01/19 11:20:00;;;;;;;11.02;2.45;;;5.80;99.90;;;;;;5020999;28;90079;-32
2023/01/19 11:22:31;;;;;;;7.88;3.33;;;5.90;99.90;;;;;;5020857;28;90031;-34
2023/01/19 11:25:04;;;;;;;6.53;2.25;;;6.00;99.90;;;;;;5020868;28;88745;-32
2023/01/19 11:27:34;;;;;;;13.30;2.80;;;6.10;99.90;;;;;;5020868;28;88585;-33
2023/01/19 11:30:09;;;;;;;13.50;3.13;;;6.20;99.90;;;;;;5021983;28;89993;-33
2023/01/19 11:32:35;;;;;;;12.48;2.28;;;6.30;99.90;;;;;;5012209;28;89599;-34
2023/01/19 11:35:20;;;;;;;10.18;3.17;;;6.30;99.90;;;;;;5001429;28;89578;-33
2023/01/19 11:37:46;;;;;;;9.32;2.78;;;6.40;99.90;;;;;;5000613;28;89886;-32
2023/01/19 11:40:14;;;;;;;10.90;3.25;;;6.40;99.90;;;;;;5012617;28;88975;-32
2023/01/19 11:42:40;;;;;;;11.30;3.00;;;6.40;99.90;;;;;;5001204;28;89849;-33
2023/01/19 11:45:10;;;;;;;5.50;1.95;;;6.50;99.90;;;;;;5000494;28;88520;-31
2023/01/19 11:47:48;;;;;;;9.05;2.88;;;6.50;99.90;;;;;;5000548;28;89756;-35
2023/01/19 11:50:28;;;;;;;7.97;3.03;;;6.50;99.90;;;;;;5005919;28;90046;-32
2023/01/19 11:53:17;;;;;;;6.65;2.97;;;6.60;99.90;;;;;;5006831;28;88507;-34
2023/01/19 11:55:51;;;;;;;10.52;2.92;;;6.70;99.90;;;;;;5004868;28;89516;-33
2023/01/19 11:58:18;;;;;;;7.95;1.95;;;6.70;99.90;;;;;;4999066;28;88638;-35
2023/01/19 12:00:56;;;;;;;6.55;2.38;;;6.70;99.90;;;;;;4996241;28;90316;-32
2023/01/19 12:03:31;;;;;;;8.07;2.78;;;6.70;99.90;;;;;;4981013;28;89941;-33
2023/01/19 12:06:02;;;;;;;10.38;3.03;;;6.80;99.90;;;;;;4996431;28;89243;-34
2023/01/19 12:08:39;;;;;;;8.20;2.38;;;6.70;99.90;;;;;;4998108;28;87949;-33
2023/01/19 12:11:09;;;;;;;6.05;2.00;;;6.80;99.90;;;;;;4997315;28;90465;-33
2023/01/19 12:13:36;;;;;;;4.90;2.53;;;6.80;99.90;;;;;;4997674;28;90452;-33
2023/01/19 12:16:07;;;;;;;6.15;2.50;;;6.80;99.90;;;;;;4998258;28;88814;-34
2023/01/19 12:18:43;;;;;;;13.05;2.10;;;6.80;99.90;;;;;;5013319;28;88455;-32
2023/01/19 12:21:09;;;;;;;11.27;2.25;;;6.90;99.90;;;;;;5019122;28;90502;-32
2023/01/19 12:24:02;;;;;;;4.45;2.00;;;6.90;99.90;;;;;;5017901;27;90387;-34
2023/01/19 12:26:37;;;;;;;6.18;2.15;;;6.90;99.90;;;;;;5019181;28;89822;-32
2023/01/19 12:29:16;;;;;;;6.50;2.20;;;7.00;99.90;;;;;;5018544;28;90318;-33
2023/01/19 12:31:42;;;;;;;7.07;2.45;;;7.00;99.90;;;;;;5016856;28;91144;-33
2023/01/19 12:34:38;;;;;;;3.75;1.70;;;7.00;99.90;;;;;;5010240;28;88658;-32
2023/01/19 12:37:06;;;;;;;8.43;2.22;;;6.90;99.90;;;;;;5012155;28;89025;-33
2023/01/19 12:39:34;;;;;;;11.23;2.00;;;7.00;99.90;;;;;;5007752;28;89271;-32
2023/01/19 12:42:16;;;;;;;6.97;2.37;;;7.00;99.90;;;;;;4989554;28;91859;-33
2023/01/19 12:44:46;;;;;;;5.00;1.80;;;7.00;99.90;;;;;;4997876;28;89514;-35
2023/01/19 12:47:14;;;;;;;7.50;1.90;;;7.00;99.90;;;;;;4998921;28;89675;-33
2023/01/19 12:49:45;;;;;;;7.53;1.88;;;6.90;99.90;;;;;;4998306;28;89266;-35
2023/01/19 12:52:32;;;;;;;8.93;1.60;;;6.80;99.90;;;;;;4990058;28;90474;-33
2023/01/19 12:55:15;;;;;;;7.40;2.22;;;6.70;99.90;;;;;;4997585;28;88782;-33
2023/01/19 12:58:03;;;;;;;5.72;1.95;;;6.60;99.90;;;;;;4997704;28;88890;-33
2023/01/19 13:00:35;;;;;;;2.28;1.30;;;6.50;99.90;;;;;;4997653;28;89574;-34
2023/01/19 13:03:15;;;;;;;2.63;1.90;;;6.40;99.90;;;;;;4997533;28;88318;-32
2023/01/19 13:05:40;;;;;;;6.25;1.75;;;6.20;99.90;;;;;;4997100;28;90609;-33